sensor_id;sensor_type;location;lat;lon;timestamp;P1;durP1;ratioP1;P2;durP2;ratioP2
69026;SDS011;56080;47.594;19.116;2023-02-14T00:00:24;13.70;;;7.30;;
69026;SDS011;56080;47.594;19.116;2023-02-14T00:10:25;26.10;;;13.60;;
69026;SDS011;56080;47.594;19.116;2023-02-14T00:20:25;31.70;;;16.10;;
69026;SDS011;56080;47.594;19.116;2023-02-14T00:30:25;34.30;;;17.60;;
69026;SDS011;56080;47.594;19.116;2023-02-14T00:40:25;30.50;;;16.60;;
69026;SDS011;56080;47.594;19.116;2023-02-14T00:50:25;31.00;;;17.00;;
69026;SDS011;56080;47.594;19.116;2023-02-14T01:00:25;29.70;;;14.90;;
69026;SDS011;56080;47.594;19.116;2023-02-14T01:10:25;36.50;;;17.70;;
69026;SDS011;56080;47.594;19.116;2023-02-14T01:20:25;33.90;;;18.10;;
69026;SDS011;56080;47.594;19.116;2023-02-14T01:30:26;33.80;;;19.20;;
69026;SDS011;56080;47.594;19.116;2023-02-14T01:40:26;31.80;;;17.50;;
69026;SDS011;56080;47.594;19.116;2023-02-14T01:50:31;31.50;;;16.80;;
69026;SDS011;56080;47.594;19.116;2023-02-14T02:00:36;37.00;;;18.50;;
69026;SDS011;56080;47.594;19.116;2023-02-14T02:10:26;28.70;;;14.80;;
69026;SDS011;56080;47.594;19.116;2023-02-14T02:40:28;26.60;;;14.60;;
69026;SDS011;56080;47.594;19.116;2023-02-14T02:50:42;30.20;;;15.00;;
69026;SDS011;56080;47.594;19.116;2023-02-14T03:00:27;24.10;;;13.10;;
69026;SDS011;56080;47.594;19.116;2023-02-14T03:10:32;24.50;;;13.40;;
69026;SDS011;56080;47.594;19.116;2023-02-14T03:20:35;27.20;;;12.60;;
69026;SDS011;56080;47.594;19.116;2023-02-14T03:30:29;22.00;;;12.00;;
69026;SDS011;56080;47.594;19.116;2023-02-14T03:40:31;23.50;;;13.00;;
69026;SDS011;56080;47.594;19.116;2023-02-14T03:50:27;24.00;;;12.50;;
69026;SDS011;56080;47.594;19.116;2023-02-14T04:00:27;25.70;;;12.70;;
69026;SDS011;56080;47.594;19.116;2023-02-14T04:10:26;24.60;;;12.30;;
69026;SDS011;56080;47.594;19.116;2023-02-14T04:20:27;19.90;;;11.30;;
69026;SDS011;56080;47.594;19.116;2023-02-14T04:30:27;22.60;;;11.70;;
69026;SDS011;56080;47.594;19.116;2023-02-14T04:40:27;21.50;;;10.50;;
69026;SDS011;56080;47.594;19.116;2023-02-14T04:50:25;19.60;;;10.80;;
69026;SDS011;56080;47.594;19.116;2023-02-14T05:00:26;18.00;;;9.70;;
69026;SDS011;56080;47.594;19.116;2023-02-14T05:10:26;18.30;;;9.80;;
69026;SDS011;56080;47.594;19.116;2023-02-14T05:20:25;19.20;;;10.20;;
69026;SDS011;56080;47.594;19.116;2023-02-14T05:30:25;20.40;;;9.50;;
69026;SDS011;56080;47.594;19.116;2023-02-14T05:40:26;19.70;;;10.00;;
69026;SDS011;56080;47.594;19.116;2023-02-14T05:50:25;16.40;;;8.80;;
69026;SDS011;56080;47.594;19.116;2023-02-14T06:00:25;20.70;;;10.50;;
69026;SDS011;56080;47.594;19.116;2023-02-14T06:30:25;20.40;;;10.30;;
69026;SDS011;56080;47.594;19.116;2023-02-14T06:40:24;20.50;;;10.50;;
69026;SDS011;56080;47.594;19.116;2023-02-14T06:50:24;19.10;;;10.40;;
69026;SDS011;56080;47.594;19.116;2023-02-14T07:00:24;20.60;;;11.40;;
69026;SDS011;56080;47.594;19.116;2023-02-14T07:10:24;22.00;;;11.10;;
69026;SDS011;56080;47.594;19.116;2023-02-14T07:20:24;23.60;;;11.80;;
69026;SDS011;56080;47.594;19.116;2023-02-14T07:30:24;19.00;;;11.40;;
69026;SDS011;56080;47.594;19.116;2023-02-14T07:40:26;19.30;;;10.70;;
69026;SDS011;56080;47.594;19.116;2023-02-14T07:50:24;21.70;;;11.30;;
69026;SDS011;56080;47.594;19.116;2023-02-14T08:00:25;19.20;;;10.20;;
69026;SDS011;56080;47.594;19.116;2023-02-14T08:10:24;23.50;;;11.90;;
69026;SDS011;56080;47.594;19.116;2023-02-14T08:20:25;18.60;;;10.80;;
69026;SDS011;56080;47.594;19.116;2023-02-14T08:30:25;23.30;;;12.90;;
69026;SDS011;56080;47.594;19.116;2023-02-14T08:40:26;19.30;;;11.10;;
69026;SDS011;56080;47.594;19.116;2023-02-14T08:50:27;20.00;;;10.90;;
69026;SDS011;56080;47.594;19.116;2023-02-14T09:10:28;19.00;;;11.10;;
69026;SDS011;56080;47.594;19.116;2023-02-14T09:20:33;15.30;;;9.40;;
69026;SDS011;56080;47.594;19.116;2023-02-14T09:30:29;17.40;;;11.00;;
69026;SDS011;56080;47.594;19.116;2023-02-14T09:40:31;16.60;;;11.00;;
69026;SDS011;56080;47.594;19.116;2023-02-14T10:00:47;13.50;;;7.90;;
69026;SDS011;56080;47.594;19.116;2023-02-14T10:10:41;10.90;;;6.80;;
69026;SDS011;56080;47.594;19.116;2023-02-14T10:30:36;11.90;;;6.80;;
69026;SDS011;56080;47.594;19.116;2023-02-14T10:50:38;12.10;;;6.40;;
69026;SDS011;56080;47.594;19.116;2023-02-14T11:00:45;11.10;;;6.00;;
69026;SDS011;56080;47.594;19.116;2023-02-14T11:10:40;11.80;;;6.80;;
69026;SDS011;56080;47.594;19.116;2023-02-14T11:20:39;11.70;;;6.80;;
69026;SDS011;56080;47.594;19.116;2023-02-14T11:30:45;12.00;;;6.70;;
69026;SDS011;56080;47.594;19.116;2023-02-14T11:40:42;11.00;;;5.60;;
69026;SDS011;56080;47.594;19.116;2023-02-14T11:50:42;12.40;;;6.90;;
69026;SDS011;56080;47.594;19.116;2023-02-14T12:00:49;12.60;;;7.60;;
69026;SDS011;56080;47.594;19.116;2023-02-14T12:10:45;12.20;;;6.70;;
69026;SDS011;56080;47.594;19.116;2023-02-14T12:30:44;11.90;;;6.60;;
69026;SDS011;56080;47.594;19.116;2023-02-14T12:40:50;11.10;;;5.90;;
69026;SDS011;56080;47.594;19.116;2023-02-14T13:20:53;9.40;;;4.70;;
69026;SDS011;56080;47.594;19.116;2023-02-14T13:30:50;8.60;;;4.30;;
69026;SDS011;56080;47.594;19.116;2023-02-14T13:40:49;8.40;;;4.40;;
69026;SDS011;56080;47.594;19.116;2023-02-14T13:51:03;9.80;;;5.40;;
69026;SDS011;56080;47.594;19.116;2023-02-14T14:00:53;10.20;;;5.10;;
69026;SDS011;56080;47.594;19.116;2023-02-14T14:10:55;11.30;;;6.10;;
69026;SDS011;56080;47.594;19.116;2023-02-14T14:20:55;11.50;;;5.70;;
69026;SDS011;56080;47.594;19.116;2023-02-14T14:30:55;10.40;;;6.30;;
69026;SDS011;56080;47.594;19.116;2023-02-14T14:40:55;12.00;;;6.70;;
69026;SDS011;56080;47.594;19.116;2023-02-14T14:50:55;10.60;;;6.50;;
69026;SDS011;56080;47.594;19.116;2023-02-14T15:01:00;10.80;;;6.10;;
69026;SDS011;56080;47.594;19.116;2023-02-14T15:11:07;10.90;;;5.60;;
69026;SDS011;56080;47.594;19.116;2023-02-14T15:20:58;11.00;;;5.70;;
69026;SDS011;56080;47.594;19.116;2023-02-14T15:31:04;10.20;;;6.40;;
69026;SDS011;56080;47.594;19.116;2023-02-14T15:40:58;9.50;;;5.00;;
69026;SDS011;56080;47.594;19.116;2023-02-14T15:51:00;10.40;;;5.20;;
69026;SDS011;56080;47.594;19.116;2023-02-14T16:01:04;10.70;;;6.10;;
69026;SDS011;56080;47.594;19.116;2023-02-14T16:11:24;10.60;;;5.90;;
69026;SDS011;56080;47.594;19.116;2023-02-14T16:21:14;10.70;;;6.10;;
69026;SDS011;56080;47.594;19.116;2023-02-14T16:31:05;10.80;;;6.00;;
69026;SDS011;56080;47.594;19.116;2023-02-14T16:41:02;10.00;;;5.30;;
69026;SDS011;56080;47.594;19.116;2023-02-14T16:51:02;9.00;;;5.20;;
69026;SDS011;56080;47.594;19.116;2023-02-14T17:01:07;11.10;;;5.80;;
69026;SDS011;56080;47.594;19.116;2023-02-14T17:11:05;11.70;;;5.90;;
69026;SDS011;56080;47.594;19.116;2023-02-14T17:21:04;13.30;;;6.90;;
69026;SDS011;56080;47.594;19.116;2023-02-14T17:31:05;13.10;;;6.70;;
69026;SDS011;56080;47.594;19.116;2023-02-14T17:41:14;15.40;;;7.80;;
69026;SDS011;56080;47.594;19.116;2023-02-14T17:51:06;12.80;;;6.60;;
69026;SDS011;56080;47.594;19.116;2023-02-14T18:01:10;10.50;;;6.10;;
69026;SDS011;56080;47.594;19.116;2023-02-14T18:11:08;12.70;;;6.70;;
69026;SDS011;56080;47.594;19.116;2023-02-14T18:21:10;15.00;;;8.10;;
69026;SDS011;56080;47.594;19.116;2023-02-14T18:31:14;16.60;;;8.90;;
69026;SDS011;56080;47.594;19.116;2023-02-14T18:41:14;13.90;;;7.50;;
69026;SDS011;56080;47.594;19.116;2023-02-14T18:51:16;15.30;;;7.90;;
69026;SDS011;56080;47.594;19.116;2023-02-14T19:01:19;15.60;;;8.50;;
69026;SDS011;56080;47.594;19.116;2023-02-14T19:11:12;17.30;;;9.10;;
69026;SDS011;56080;47.594;19.116;2023-02-14T19:21:22;17.60;;;9.90;;
69026;SDS011;56080;47.594;19.116;2023-02-14T19:31:14;19.20;;;9.80;;
69026;SDS011;56080;47.594;19.116;2023-02-14T19:41:14;25.30;;;14.00;;
69026;SDS011;56080;47.594;19.116;2023-02-14T19:51:13;21.20;;;11.70;;
69026;SDS011;56080;47.594;19.116;2023-02-14T20:01:24;23.70;;;12.40;;
69026;SDS011;56080;47.594;19.116;2023-02-14T20:11:23;22.30;;;12.40;;
69026;SDS011;56080;47.594;19.116;2023-02-14T20:21:15;28.80;;;14.80;;
69026;SDS011;56080;47.594;19.116;2023-02-14T20:31:17;22.90;;;13.30;;
69026;SDS011;56080;47.594;19.116;2023-02-14T20:41:16;29.30;;;15.80;;
69026;SDS011;56080;47.594;19.116;2023-02-14T20:51:20;34.30;;;19.30;;
69026;SDS011;56080;47.594;19.116;2023-02-14T21:01:18;37.10;;;18.50;;
69026;SDS011;56080;47.594;19.116;2023-02-14T21:11:14;42.30;;;21.20;;
69026;SDS011;56080;47.594;19.116;2023-02-14T21:21:17;40.90;;;21.30;;
69026;SDS011;56080;47.594;19.116;2023-02-14T21:31:16;42.30;;;22.90;;
69026;SDS011;56080;47.594;19.116;2023-02-14T21:41:17;43.70;;;22.50;;
69026;SDS011;56080;47.594;19.116;2023-02-14T21:51:17;38.20;;;20.60;;
69026;SDS011;56080;47.594;19.116;2023-02-14T22:01:14;43.00;;;23.20;;
69026;SDS011;56080;47.594;19.116;2023-02-14T22:11:14;40.90;;;22.70;;
69026;SDS011;56080;47.594;19.116;2023-02-14T22:21:17;40.20;;;21.40;;
69026;SDS011;56080;47.594;19.116;2023-02-14T22:31:14;43.90;;;23.90;;
69026;SDS011;56080;47.594;19.116;2023-02-14T22:41:17;43.40;;;24.20;;
69026;SDS011;56080;47.594;19.116;2023-02-14T23:01:14;41.00;;;22.70;;
69026;SDS011;56080;47.594;19.116;2023-02-14T23:11:17;49.40;;;27.40;;
69026;SDS011;56080;47.594;19.116;2023-02-14T23:21:23;45.50;;;26.10;;
69026;SDS011;56080;47.594;19.116;2023-02-14T23:31:13;45.80;;;25.60;;
69026;SDS011;56080;47.594;19.116;2023-02-14T23:41:23;52.00;;;26.30;;
69026;SDS011;56080;47.594;19.116;2023-02-14T23:51:14;51.90;;;28.50;;
